createdAt,value
2023-01-08T00:02:27.433Z,10.41
2023-01-08T00:04:59.371Z,10.43
2023-01-08T00:07:31.320Z,10.41
2023-01-08T00:10:03.332Z,10.42
2023-01-08T00:12:35.264Z,10.45
2023-01-08T00:15:07.828Z,10.42
2023-01-08T00:17:39.787Z,10.35
2023-01-08T00:20:11.881Z,10.30
2023-01-08T00:22:44.072Z,10.33
2023-01-08T00:25:16.872Z,10.35
2023-01-08T00:27:48.871Z,10.44
2023-01-08T00:30:20.840Z,10.49
2023-01-08T00:32:53.678Z,10.43
2023-01-08T00:35:25.688Z,10.43
2023-01-08T00:37:57.739Z,10.44
2023-01-08T00:40:29.693Z,10.40
2023-01-08T00:43:02.336Z,10.49
2023-01-08T00:45:34.569Z,10.42
2023-01-08T00:48:06.937Z,10.47
2023-01-08T00:50:38.944Z,10.45
2023-01-08T00:53:10.958Z,10.49
2023-01-08T00:55:42.914Z,10.47
2023-01-08T00:58:16.197Z,10.61
2023-01-08T01:00:48.285Z,10.56
2023-01-08T01:03:20.230Z,10.59
2023-01-08T01:06:05.308Z,10.62
2023-01-08T01:08:37.253Z,10.60
2023-01-08T01:11:22.138Z,10.57
2023-01-08T01:13:56.637Z,10.52
2023-01-08T01:16:28.686Z,10.65
2023-01-08T01:19:00.831Z,10.66
2023-01-08T01:21:33.709Z,10.56
2023-01-08T01:24:07.080Z,10.50
2023-01-08T01:26:39.837Z,10.51
2023-01-08T01:29:11.869Z,10.46
2023-01-08T01:31:43.874Z,10.52
2023-01-08T01:34:15.964Z,10.58
2023-01-08T01:36:47.954Z,10.67
2023-01-08T01:39:20.063Z,10.71
2023-01-08T01:41:53.432Z,10.70
2023-01-08T01:44:45.410Z,10.50
2023-01-08T01:47:41.160Z,10.45
2023-01-08T01:50:23.744Z,10.40
2023-01-08T01:53:12.406Z,10.44
2023-01-08T01:55:46.044Z,10.43
2023-01-08T01:58:25.944Z,10.42
2023-01-08T02:01:05.430Z,10.44
2023-01-08T02:03:39.731Z,10.48
2023-01-08T02:06:20.493Z,10.46
2023-01-08T02:09:00.781Z,10.52
2023-01-08T02:12:16.094Z,10.48
2023-01-08T02:14:54.235Z,10.45
2023-01-08T02:17:56.234Z,10.56
2023-01-08T02:20:44.292Z,10.58
2023-01-08T02:23:38.266Z,10.63
2023-01-08T02:26:28.918Z,10.59
2023-01-08T02:29:08.402Z,10.64
2023-01-08T02:31:42.630Z,10.68
2023-01-08T02:34:14.906Z,10.75
2023-01-08T02:36:55.350Z,10.79
2023-01-08T02:39:44.419Z,10.72
2023-01-08T02:42:51.643Z,10.77
2023-01-08T02:45:51.184Z,10.72
2023-01-08T02:48:41.015Z,10.71
2023-01-08T02:51:23.973Z,10.84
2023-01-08T02:54:02.866Z,10.85
2023-01-08T02:56:38.922Z,10.91
2023-01-08T02:59:13.361Z,10.71
2023-01-08T03:01:46.622Z,10.74
2023-01-08T03:04:22.825Z,10.66
2023-01-08T03:07:01.323Z,10.84
2023-01-08T03:09:33.440Z,10.88
2023-01-08T03:12:19.267Z,10.92
2023-01-08T03:14:59.472Z,10.92
2023-01-08T03:17:36.304Z,10.74
2023-01-08T03:20:13.818Z,10.67
2023-01-08T03:22:51.992Z,10.59
2023-01-08T03:25:26.891Z,10.66
2023-01-08T03:28:05.610Z,10.73
2023-01-08T03:30:41.658Z,10.74
2023-01-08T03:33:15.150Z,10.74
2023-01-08T03:35:51.838Z,10.71
2023-01-08T03:38:35.317Z,10.68
2023-01-08T03:41:12.999Z,10.63
2023-01-08T03:43:45.132Z,10.66
2023-01-08T03:46:32.599Z,10.61
2023-01-08T03:49:07.417Z,10.65
2023-01-08T03:51:44.243Z,10.60
2023-01-08T03:54:23.990Z,10.67
2023-01-08T03:56:55.954Z,10.66
2023-01-08T03:59:28.046Z,10.60
2023-01-08T04:02:00.167Z,10.48
2023-01-08T04:04:32.379Z,10.53
2023-01-08T04:07:04.570Z,10.56
2023-01-08T04:09:36.512Z,10.55
2023-01-08T04:12:08.446Z,10.61
2023-01-08T04:14:41.048Z,10.58
2023-01-08T04:17:13.666Z,10.58
2023-01-08T04:19:45.663Z,10.58
2023-01-08T04:22:17.588Z,10.52
2023-01-08T04:24:49.631Z,10.47
2023-01-08T04:27:21.634Z,10.37
2023-01-08T04:29:53.655Z,10.34
2023-01-08T04:32:25.634Z,10.36
2023-01-08T04:34:57.691Z,10.38
2023-01-08T04:37:29.619Z,10.34
2023-01-08T04:40:01.576Z,10.34
2023-01-08T04:42:33.662Z,10.30
2023-01-08T04:45:08.002Z,10.28
2023-01-08T04:47:40.001Z,10.30
2023-01-08T04:50:12.351Z,10.31
2023-01-08T04:52:44.289Z,10.33
2023-01-08T04:55:16.625Z,10.37
2023-01-08T04:57:48.613Z,10.31
2023-01-08T05:00:20.726Z,10.24
2023-01-08T05:02:52.745Z,10.21
2023-01-08T05:05:24.989Z,10.20
2023-01-08T05:07:57.106Z,10.19
2023-01-08T05:10:29.090Z,10.24
2023-01-08T05:13:01.991Z,10.28
2023-01-08T05:15:33.953Z,10.17
2023-01-08T05:18:06.369Z,10.24
2023-01-08T05:20:38.398Z,10.17
2023-01-08T05:23:10.457Z,10.23
2023-01-08T05:25:42.543Z,10.22
2023-01-08T05:28:14.509Z,10.21
2023-01-08T05:30:46.550Z,10.25
2023-01-08T05:33:18.561Z,10.36
2023-01-08T05:35:50.561Z,10.41
2023-01-08T05:38:22.952Z,10.40
2023-01-08T05:40:58.012Z,10.34
2023-01-08T05:43:30.613Z,10.23
2023-01-08T05:46:03.920Z,10.29
2023-01-08T05:48:37.453Z,10.31
2023-01-08T05:51:09.516Z,10.29
2023-01-08T05:53:41.470Z,10.21
2023-01-08T05:56:15.420Z,10.25
2023-01-08T05:58:47.343Z,10.36
2023-01-08T06:01:19.409Z,10.30
2023-01-08T06:03:51.531Z,10.45
2023-01-08T06:06:23.620Z,10.45
2023-01-08T06:08:55.561Z,10.41
2023-01-08T06:11:27.549Z,10.47
2023-01-08T06:13:59.547Z,10.52
2023-01-08T06:16:31.571Z,10.56
2023-01-08T06:19:03.541Z,10.55
2023-01-08T06:21:35.578Z,10.54
2023-01-08T06:24:07.750Z,10.50
2023-01-08T06:26:39.698Z,10.57
2023-01-08T06:29:11.753Z,10.65
2023-01-08T06:31:43.778Z,10.61
2023-01-08T06:34:15.878Z,10.66
2023-01-08T06:36:47.879Z,10.57
2023-01-08T06:39:19.829Z,10.54
2023-01-08T06:41:51.798Z,10.47
2023-01-08T06:44:23.933Z,10.52
2023-01-08T06:46:56.092Z,10.56
2023-01-08T06:49:28.132Z,10.58
2023-01-08T06:52:00.112Z,10.56
2023-01-08T06:54:32.023Z,10.47
2023-01-08T06:57:04.063Z,10.49
2023-01-08T06:59:36.018Z,10.51
2023-01-08T07:02:15.584Z,10.44
2023-01-08T07:04:47.718Z,10.34
2023-01-08T07:07:19.681Z,10.35
2023-01-08T07:09:51.653Z,10.45
2023-01-08T07:12:23.711Z,10.45
2023-01-08T07:14:55.676Z,10.62
2023-01-08T07:17:27.660Z,10.68
2023-01-08T07:20:01.578Z,10.66
2023-01-08T07:22:33.656Z,10.70
2023-01-08T07:25:07.276Z,10.58
2023-01-08T07:27:42.345Z,10.61
2023-01-08T07:30:28.756Z,10.51
2023-01-08T07:33:02.355Z,10.59
2023-01-08T07:35:35.654Z,10.58
2023-01-08T07:38:07.697Z,10.53
2023-01-08T07:40:40.747Z,10.40
2023-01-08T07:43:12.870Z,10.29
2023-01-08T07:45:45.249Z,10.15
2023-01-08T07:48:17.333Z,10.11
2023-01-08T07:50:49.319Z,10.10
2023-01-08T07:53:21.299Z,10.14
2023-01-08T07:55:53.227Z,10.19
2023-01-08T07:58:25.181Z,10.13
2023-01-08T08:00:59.241Z,10.13
2023-01-08T08:03:31.932Z,10.10
2023-01-08T08:06:04.027Z,10.05
2023-01-08T08:08:36.130Z,10.05
2023-01-08T08:11:08.225Z,10.18
2023-01-08T08:13:44.851Z,10.25
2023-01-08T08:16:16.937Z,10.22
2023-01-08T08:18:49.004Z,10.16
2023-01-08T08:21:21.256Z,10.26
2023-01-08T08:23:53.263Z,10.30
2023-01-08T08:26:25.533Z,10.20
2023-01-08T08:28:57.461Z,10.31
2023-01-08T08:31:29.509Z,10.35
2023-01-08T08:34:01.569Z,10.35
2023-01-08T08:36:36.199Z,10.40
2023-01-08T08:39:08.292Z,10.35
2023-01-08T08:41:40.237Z,10.37
2023-01-08T08:44:12.376Z,10.37
2023-01-08T08:46:44.416Z,10.40
2023-01-08T08:49:16.499Z,10.47
2023-01-08T08:51:48.497Z,10.53
2023-01-08T08:54:20.531Z,10.58
2023-01-08T08:56:52.476Z,10.40
2023-01-08T08:59:24.491Z,10.45
2023-01-08T09:01:56.638Z,10.37
2023-01-08T09:04:33.772Z,10.34
2023-01-08T09:07:05.777Z,10.34
2023-01-08T09:09:37.715Z,10.45
2023-01-08T09:12:10.056Z,10.56
2023-01-08T09:14:42.159Z,10.39
2023-01-08T09:17:14.109Z,10.27
2023-01-08T09:19:46.133Z,10.37
2023-01-08T09:22:18.388Z,10.35
2023-01-08T09:24:50.464Z,10.39
2023-01-08T09:27:22.507Z,10.18
2023-01-08T09:29:54.453Z,10.25
2023-01-08T09:32:26.387Z,10.29
2023-01-08T09:34:58.548Z,10.20
2023-01-08T09:37:30.605Z,10.19
2023-01-08T09:40:03.369Z,10.17
2023-01-08T09:42:35.641Z,10.26
2023-01-08T09:45:24.919Z,10.42
2023-01-08T09:48:02.044Z,10.48
2023-01-08T09:50:34.813Z,10.59
2023-01-08T09:53:15.213Z,10.44
2023-01-08T09:56:09.130Z,10.35
2023-01-08T09:58:52.782Z,10.37
2023-01-08T10:01:30.058Z,10.21
2023-01-08T10:04:15.724Z,10.24
2023-01-08T10:06:52.472Z,10.36
2023-01-08T10:09:29.410Z,10.28
2023-01-08T10:12:04.985Z,10.37
2023-01-08T10:14:40.198Z,10.51
2023-01-08T10:17:29.957Z,10.65
2023-01-08T10:20:02.068Z,10.67
2023-01-08T10:22:34.414Z,10.46
2023-01-08T10:25:18.274Z,10.54
2023-01-08T10:27:53.194Z,10.51
2023-01-08T10:30:31.065Z,10.41
2023-01-08T10:33:07.371Z,10.34
2023-01-08T10:35:42.286Z,10.36
2023-01-08T10:38:42.985Z,10.51
2023-01-08T10:41:15.493Z,10.47
2023-01-08T10:44:03.934Z,10.45
2023-01-08T10:46:43.312Z,10.43
2023-01-08T10:49:32.450Z,10.48
2023-01-08T10:52:04.970Z,10.70
2023-01-08T10:54:40.397Z,10.75
2023-01-08T10:57:41.376Z,10.66
2023-01-08T11:00:30.477Z,10.57
2023-01-08T11:03:07.394Z,10.59
2023-01-08T11:05:40.560Z,10.62
2023-01-08T11:08:21.861Z,10.63
2023-01-08T11:11:01.289Z,10.66
2023-01-08T11:13:33.335Z,10.62
2023-01-08T11:16:10.817Z,10.43
2023-01-08T11:18:47.412Z,10.40
2023-01-08T11:21:31.723Z,10.38
2023-01-08T11:24:18.195Z,10.48
2023-01-08T11:27:10.855Z,10.65
2023-01-08T11:30:07.697Z,10.65
2023-01-08T11:33:02.072Z,10.74
2023-01-08T11:35:42.644Z,10.85
2023-01-08T11:38:14.844Z,10.87
2023-01-08T11:41:30.373Z,10.98
2023-01-08T11:44:12.181Z,11.01
2023-01-08T11:47:11.659Z,10.97
2023-01-08T11:50:13.765Z,10.97
2023-01-08T11:53:16.569Z,10.95
2023-01-08T11:56:20.212Z,11.03
2023-01-08T11:59:04.385Z,11.02
2023-01-08T12:02:11.094Z,11.11
2023-01-08T12:05:29.830Z,11.13
2023-01-08T12:08:29.440Z,11.14
2023-01-08T12:11:22.844Z,11.15
2023-01-08T12:14:24.439Z,11.09
2023-01-08T12:17:30.258Z,11.07
2023-01-08T12:20:38.433Z,11.07
2023-01-08T12:24:08.016Z,11.18
2023-01-08T12:27:03.957Z,11.18
2023-01-08T12:32:37.881Z,11.25
2023-01-08T12:35:23.499Z,11.15
2023-01-08T12:38:06.723Z,11.17
2023-01-08T12:40:56.918Z,11.16
2023-01-08T12:43:44.057Z,11.07
2023-01-08T12:46:17.292Z,11.18
2023-01-08T12:48:52.102Z,11.18
2023-01-08T12:52:05.235Z,11.29
2023-01-08T12:54:51.392Z,11.23
2023-01-08T12:57:40.600Z,11.20
2023-01-08T13:00:40.156Z,11.08
2023-01-08T13:03:25.106Z,11.08
2023-01-08T13:06:12.547Z,11.16
2023-01-08T13:08:55.279Z,11.14
2023-01-08T13:11:38.385Z,11.09
2023-01-08T13:14:13.816Z,11.14
2023-01-08T13:16:47.550Z,11.16
2023-01-08T13:19:52.937Z,11.30
2023-01-08T13:22:32.001Z,11.15
2023-01-08T13:25:18.049Z,11.13
2023-01-08T13:27:50.079Z,11.16
2023-01-08T13:30:43.406Z,11.25
2023-01-08T13:33:38.355Z,11.43
2023-01-08T13:36:13.294Z,11.49
2023-01-08T13:38:45.803Z,11.62
2023-01-08T13:41:37.399Z,11.47
2023-01-08T13:44:36.470Z,11.49
2023-01-08T13:47:27.608Z,11.47
2023-01-08T13:50:04.342Z,11.45
2023-01-08T13:52:56.410Z,11.38
2023-01-08T13:55:33.839Z,11.36
2023-01-08T13:58:25.311Z,11.44
2023-01-08T14:01:00.163Z,11.35
2023-01-08T14:03:35.771Z,11.23
2023-01-08T14:06:19.025Z,11.08
2023-01-08T14:09:03.568Z,11.00
2023-01-08T14:11:46.723Z,10.91
2023-01-08T14:14:22.428Z,10.97
2023-01-08T14:16:55.659Z,11.10
2023-01-08T14:19:28.412Z,11.10
2023-01-08T14:22:04.353Z,11.09
2023-01-08T14:24:36.320Z,11.00
2023-01-08T14:27:26.088Z,10.92
2023-01-08T14:29:58.941Z,10.87
2023-01-08T14:32:31.674Z,10.89
2023-01-08T14:35:09.394Z,10.91
2023-01-08T14:37:41.461Z,10.87
2023-01-08T14:40:24.092Z,10.86
2023-01-08T14:42:56.554Z,10.86
2023-01-08T14:45:34.440Z,10.82
2023-01-08T14:48:19.433Z,10.87
2023-01-08T14:51:26.709Z,10.91
2023-01-08T14:54:09.550Z,10.93
2023-01-08T14:56:41.567Z,10.89
2023-01-08T14:59:20.151Z,10.88
2023-01-08T15:01:55.720Z,10.87
2023-01-08T15:04:29.235Z,10.89
2023-01-08T15:07:27.711Z,10.84
2023-01-08T15:10:01.549Z,10.84
2023-01-08T15:12:33.571Z,10.79
2023-01-08T15:15:24.793Z,10.72
2023-01-08T15:17:56.977Z,10.72
2023-01-08T15:20:32.333Z,10.74
2023-01-08T15:23:04.429Z,10.75
2023-01-08T15:25:36.368Z,10.78
2023-01-08T15:28:14.634Z,10.72
2023-01-08T15:30:46.935Z,10.67
2023-01-08T15:33:22.930Z,10.63
2023-01-08T15:35:55.892Z,10.55
2023-01-08T15:38:28.112Z,10.48
2023-01-08T15:41:02.993Z,10.42
2023-01-08T15:43:34.954Z,10.33
2023-01-08T15:46:11.717Z,10.30
2023-01-08T15:48:43.701Z,10.30
2023-01-08T15:51:15.666Z,10.27
2023-01-08T15:53:48.924Z,10.26
2023-01-08T15:56:20.856Z,10.17
2023-01-08T15:58:53.184Z,10.16
2023-01-08T16:01:27.872Z,10.15
2023-01-08T16:04:00.362Z,10.12
2023-01-08T16:06:32.625Z,10.11
2023-01-08T16:09:04.677Z,10.13
2023-01-08T16:11:36.753Z,10.20
2023-01-08T16:14:10.891Z,10.19
2023-01-08T16:16:42.940Z,10.20
2023-01-08T16:19:17.559Z,10.17
2023-01-08T16:21:52.998Z,10.17
2023-01-08T16:24:25.312Z,10.21
2023-01-08T16:26:57.282Z,10.05
2023-01-08T16:29:29.706Z,9.96
2023-01-08T16:32:04.896Z,9.87
2023-01-08T16:34:36.922Z,9.91
2023-01-08T16:37:09.399Z,9.81
2023-01-08T16:39:41.420Z,9.71
2023-01-08T16:42:13.519Z,9.68
2023-01-08T16:44:45.563Z,9.53
2023-01-08T16:47:17.519Z,9.40
2023-01-08T16:49:50.528Z,9.29
2023-01-08T16:52:25.010Z,9.28
2023-01-08T16:54:57.863Z,9.19
2023-01-08T16:57:29.848Z,9.16
2023-01-08T17:00:02.053Z,9.01
2023-01-08T17:02:34.124Z,8.96
2023-01-08T17:05:06.863Z,8.90
2023-01-08T17:07:39.077Z,8.86
2023-01-08T17:10:14.062Z,8.82
2023-01-08T17:12:46.120Z,8.75
2023-01-08T17:15:19.014Z,8.78
2023-01-08T17:17:51.009Z,8.65
2023-01-08T17:20:24.037Z,8.60
2023-01-08T17:22:58.675Z,8.53
2023-01-08T17:25:30.749Z,8.53
2023-01-08T17:28:02.827Z,8.40
2023-01-08T17:30:34.850Z,8.42
2023-01-08T17:33:06.790Z,8.41
2023-01-08T17:35:38.843Z,8.41
2023-01-08T17:38:11.694Z,8.39
2023-01-08T17:40:43.673Z,8.25
2023-01-08T17:43:15.732Z,8.20
2023-01-08T17:45:47.861Z,8.18
2023-01-08T17:48:19.997Z,8.17
2023-01-08T17:50:52.029Z,8.12
2023-01-08T17:53:24.077Z,8.18
2023-01-08T17:55:58.602Z,8.14
2023-01-08T17:58:30.621Z,8.20
2023-01-08T18:01:02.906Z,8.13
2023-01-08T18:03:34.891Z,8.15
2023-01-08T18:06:11.454Z,8.16
2023-01-08T18:08:43.471Z,8.15
2023-01-08T18:11:15.517Z,8.12
2023-01-08T18:13:47.534Z,8.04
2023-01-08T18:16:19.648Z,8.01
2023-01-08T18:18:52.467Z,8.02
2023-01-08T18:21:25.726Z,8.03
2023-01-08T18:23:57.756Z,7.98
2023-01-08T18:26:30.057Z,7.89
2023-01-08T18:29:02.075Z,7.83
2023-01-08T18:31:34.847Z,7.78
2023-01-08T18:34:09.977Z,7.77
2023-01-08T18:36:45.366Z,7.79
2023-01-08T18:39:19.904Z,7.79
2023-01-08T18:42:13.336Z,7.78
2023-01-08T18:44:45.306Z,7.84
2023-01-08T18:47:17.299Z,7.85
2023-01-08T18:49:55.426Z,7.86
2023-01-08T18:52:27.755Z,7.88
2023-01-08T18:54:59.727Z,7.88
2023-01-08T18:57:31.990Z,7.90
2023-01-08T19:00:05.369Z,7.89
2023-01-08T19:02:37.952Z,7.87
2023-01-08T19:05:10.549Z,7.83
2023-01-08T19:07:42.717Z,7.80
2023-01-08T19:10:17.341Z,7.76
2023-01-08T19:12:52.211Z,7.71
2023-01-08T19:15:26.001Z,7.75
2023-01-08T19:18:01.440Z,7.74
2023-01-08T19:20:33.593Z,7.77
2023-01-08T19:23:05.806Z,7.71
2023-01-08T19:25:40.098Z,7.63
2023-01-08T19:28:12.141Z,7.57
2023-01-08T19:30:44.317Z,7.52
2023-01-08T19:33:16.972Z,7.48
2023-01-08T19:35:49.049Z,7.52
2023-01-08T19:38:21.585Z,7.49
2023-01-08T19:40:59.053Z,7.46
2023-01-08T19:43:42.981Z,7.30
2023-01-08T19:46:15.624Z,7.36
2023-01-08T19:48:48.232Z,7.32
2023-01-08T19:51:20.544Z,7.26
2023-01-08T19:53:53.959Z,7.22
2023-01-08T19:56:26.514Z,7.21
2023-01-08T19:58:59.011Z,7.19
2023-01-08T20:01:31.183Z,7.19
2023-01-08T20:04:04.556Z,7.14
2023-01-08T20:06:37.062Z,7.09
2023-01-08T20:09:09.237Z,6.99
2023-01-08T20:11:41.222Z,7.08
2023-01-08T20:14:13.209Z,7.19
2023-01-08T20:16:45.159Z,7.22
2023-01-08T20:19:17.229Z,7.30
2023-01-08T20:21:49.261Z,7.35
2023-01-08T20:24:21.380Z,7.36
2023-01-08T20:26:53.371Z,7.41
2023-01-08T20:29:26.326Z,7.37
2023-01-08T20:31:59.557Z,7.38
2023-01-08T20:34:32.318Z,7.46
2023-01-08T20:37:06.743Z,7.55
2023-01-08T20:39:39.383Z,7.46
2023-01-08T20:42:12.296Z,7.39
2023-01-08T20:44:49.239Z,7.37
2023-01-08T20:47:21.213Z,7.28
2023-01-08T20:49:53.202Z,7.16
2023-01-08T20:52:25.337Z,7.12
2023-01-08T20:54:57.752Z,7.11
2023-01-08T20:57:29.867Z,7.09
2023-01-08T21:00:01.890Z,7.10
2023-01-08T21:02:33.877Z,7.12
2023-01-08T21:05:06.345Z,7.15
2023-01-08T21:07:38.369Z,7.11
2023-01-08T21:10:11.152Z,7.11
2023-01-08T21:12:43.185Z,7.10
2023-01-08T21:15:16.419Z,7.07
2023-01-08T21:17:49.983Z,6.97
2023-01-08T21:20:21.992Z,6.95
2023-01-08T21:22:53.947Z,6.99
2023-01-08T21:25:26.032Z,6.97
2023-01-08T21:27:58.017Z,7.05
2023-01-08T21:30:29.973Z,7.09
2023-01-08T21:33:01.969Z,6.90
2023-01-08T21:35:34.803Z,6.91
2023-01-08T21:38:06.760Z,6.85
2023-01-08T21:40:39.203Z,6.90
2023-01-08T21:43:31.511Z,6.89
2023-01-08T21:46:03.640Z,6.94
2023-01-08T21:48:35.641Z,6.94
2023-01-08T21:51:27.691Z,6.99
2023-01-08T21:53:59.726Z,6.96
2023-01-08T21:56:31.725Z,6.90
2023-01-08T21:59:03.726Z,6.92
2023-01-08T22:01:35.853Z,6.93
2023-01-08T22:04:08.955Z,6.90
2023-01-08T22:06:42.921Z,6.97
2023-01-08T22:09:14.949Z,7.00
2023-01-08T22:11:47.077Z,6.89
2023-01-08T22:14:19.053Z,6.85
2023-01-08T22:16:51.278Z,6.92
2023-01-08T22:19:23.269Z,6.91
2023-01-08T22:21:55.281Z,6.91
2023-01-08T22:24:27.261Z,6.79
2023-01-08T22:26:59.340Z,6.81
2023-01-08T22:29:31.541Z,6.77
2023-01-08T22:32:04.529Z,6.79
2023-01-08T22:34:36.460Z,6.75
2023-01-08T22:37:08.550Z,6.83
2023-01-08T22:39:40.541Z,6.90
2023-01-08T22:42:12.715Z,6.85
2023-01-08T22:44:44.682Z,6.86
2023-01-08T22:47:16.676Z,6.87
2023-01-08T22:49:49.189Z,6.90
2023-01-08T22:52:21.269Z,6.89
2023-01-08T22:54:55.337Z,6.91
2023-01-08T22:57:27.338Z,6.87
2023-01-08T22:59:59.323Z,6.91
2023-01-08T23:02:31.479Z,6.87
2023-01-08T23:05:04.766Z,6.88
2023-01-08T23:07:36.780Z,6.86
2023-01-08T23:10:10.306Z,6.87
2023-01-08T23:12:42.316Z,6.83
2023-01-08T23:15:14.305Z,6.79
2023-01-08T23:17:52.273Z,6.80
2023-01-08T23:20:25.161Z,6.84
2023-01-08T23:22:57.163Z,6.84
2023-01-08T23:25:30.232Z,6.77
2023-01-08T23:28:02.172Z,6.79
2023-01-08T23:30:34.231Z,6.76
2023-01-08T23:33:06.181Z,6.76
2023-01-08T23:35:38.239Z,6.74
2023-01-08T23:38:10.195Z,6.77
2023-01-08T23:40:45.986Z,6.75
2023-01-08T23:43:18.140Z,6.78
2023-01-08T23:45:50.434Z,6.79
2023-01-08T23:48:22.481Z,6.82
2023-01-08T23:50:54.399Z,6.84
2023-01-08T23:53:26.470Z,6.86
2023-01-08T23:55:58.492Z,6.89
2023-01-08T23:58:30.453Z,6.89
